Yang Li Hu — BOGE — position and weather

sailwx.info

Track history (hours):
 
Tides and Currents Weather Stations Pressure Air Temp Water Temp Dewpoint Dewpoint Depression Visibility Wind Speed Wind Dir Waves Ship Positions

Yang Li Hu

Last reported at 2014-Aug-28 02:10 UTC. Time now 2014-Aug-29 10:22 UTC.
Position N 57°17' E 008°07'.

Length 244 m; draft 13.8 m.

Type: Tanker. MMSI: 413975000.

Date/timePositionNaut miles runAvg speedWind from/ knotsBaromVisibWave heightAir tempDewpointWater temp
2014-Aug-28 02:10N 57°17' E 008°07'2011.5
2014-Aug-28 00:28N 57°29' E 008°36'1511.4
2014-Aug-27 23:11N 57°38' E 008°58'911.4
2014-Aug-27 22:26N 57°43' E 009°11'1011.3
2014-Aug-27 21:31N 57°48' E 009°28'1111.5
2014-Aug-27 20:33N 57°49' E 009°49'1212.0
2014-Aug-27 19:33N 57°49' E 010°11'1312.8
2014-Aug-27 18:33N 57°48' E 010°35'10 9.7
2014-Aug-27 17:33N 57°45' E 010°53'1110.7
2014-Aug-27 16:33N 57°38' E 011°07'1211.9
2014-Aug-27 15:33N 57°29' E 011°23'1111.4
2014-Aug-27 14:33N 57°19' E 011°32'1211.8
2014-Aug-27 13:32N 57°08' E 011°39'1211.8
2014-Aug-27 12:33N 56°57' E 011°46'1211.5
2014-Aug-27 11:33N 56°46' E 011°52'1212.0
2014-Aug-27 10:33N 56°35' E 011°43'1312.3
2014-Aug-27 09:32N 56°24' E 011°31'1211.9
2014-Aug-27 08:33N 56°14' E 011°20'4810.6
2014-Aug-27 04:04N 55°29' E 010°55'1910.1
2014-Aug-27 02:10N 55°10' E 011°00'49 8.6
2014-Aug-26 20:33N 54°27' E 011°42'1211.9
2014-Aug-26 19:32N 54°26' E 012°03'10 9.8
2014-Aug-26 18:33N 54°33' E 012°15'1111.3
2014-Aug-26 17:33N 54°41' E 012°28'1111.1
2014-Aug-26 16:33N 54°47' E 012°45'1412.5
2014-Aug-26 15:26N 54°52' E 013°07'4611.8
2014-Aug-26 11:32N 55°09' E 014°22'1212.0
2014-Aug-26 10:33N 55°17' E 014°38'9 8.9
2014-Aug-26 09:33N 55°19' E 014°53'1211.7
2014-Aug-26 08:33N 55°25' E 015°10'1311.8
2014-Aug-26 07:29N 55°33' E 015°28'34311.4
2014-Aug-25 01:26N 59°35' E 023°02'1112.0
2014-Aug-25 00:33N 59°38' E 023°22'1212.2
2014-Aug-24 23:33N 59°41' E 023°45'1211.9
2014-Aug-24 22:33N 59°45' E 024°08'7211.7
2014-Aug-24 16:26N 60°01' E 026°27'1011.6
2014-Aug-24 15:33N 60°01' E 026°47'  
2014-Aug-20 16:33N 59°59' E 026°41'9813.9
2014-Aug-20 09:32N 59°35' E 023°33'34213.7
2014-Aug-19 08:32N 55°42' E 015°44'1414.4
2014-Aug-19 07:33N 55°35' E 015°22'1514.7
2014-Aug-19 06:33N 55°30' E 014°58'1514.5
2014-Aug-19 05:32N 55°22' E 014°36'1414.4
2014-Aug-19 04:33N 55°11' E 014°21'3514.7
2014-Aug-19 02:11N 55°11' E 013°19'915.0
2014-Aug-19 01:33N 55°12' E 013°03'1514.9
2014-Aug-19 00:33N 55°18' E 012°39'1212.4
2014-Aug-18 23:33N 55°30' E 012°42'10 9.9
2014-Aug-18 22:34N 55°40' E 012°41'1413.9
2014-Aug-18 21:33N 55°54' E 012°39'1313.3
2014-Aug-18 20:34N 56°06' E 012°32'10 9.8
2014-Aug-18 19:33N 56°12' E 012°18'1313.0
2014-Aug-18 18:33N 56°22' E 012°02'1414.5
2014-Aug-18 17:33N 56°36' E 011°56'1514.8
2014-Aug-18 16:33N 56°50' E 011°49'1614.7
2014-Aug-18 15:29N 57°05' E 011°39'1314.3
2014-Aug-18 14:33N 57°18' E 011°31'1514.5
2014-Aug-18 13:33N 57°31' E 011°19'1515.2
2014-Aug-18 12:33N 57°41' E 010°58'1414.5
2014-Aug-18 11:33N 57°48' E 010°34'1615.9
2014-Aug-18 10:33N 57°46' E 010°04'7814.9
2014-Aug-18 05:21N 57°02' E 008°06'1915.4
2014-Aug-18 04:09N 56°45' E 007°52'  
Track history (hours):
 
Tides and Currents Weather Stations Pressure Air Temp Water Temp Dewpoint Dewpoint Depression Visibility Wind Speed Wind Dir Waves Ship Positions

Yang Li Hu

Last reported at 2014-Aug-28 02:10 UTC. Time now 2014-Aug-29 10:22 UTC.
Position N 57°17' E 008°07'.

Length 244 m; draft 13.8 m.

Type: Tanker. MMSI: 413975000.

Date/timePositionNaut miles runAvg speedWind from/ knotsBaromVisibWave heightAir tempDewpointWater temp
2014-Aug-28 02:10N 57°17' E 008°07'2011.5
2014-Aug-28 00:28N 57°29' E 008°36'1511.4
2014-Aug-27 23:11N 57°38' E 008°58'911.4
2014-Aug-27 22:26N 57°43' E 009°11'1011.3
2014-Aug-27 21:31N 57°48' E 009°28'1111.5
2014-Aug-27 20:33N 57°49' E 009°49'1212.0
2014-Aug-27 19:33N 57°49' E 010°11'1312.8
2014-Aug-27 18:33N 57°48' E 010°35'10 9.7
2014-Aug-27 17:33N 57°45' E 010°53'1110.7
2014-Aug-27 16:33N 57°38' E 011°07'1211.9
2014-Aug-27 15:33N 57°29' E 011°23'1111.4
2014-Aug-27 14:33N 57°19' E 011°32'1211.8
2014-Aug-27 13:32N 57°08' E 011°39'1211.8
2014-Aug-27 12:33N 56°57' E 011°46'1211.5
2014-Aug-27 11:33N 56°46' E 011°52'1212.0
2014-Aug-27 10:33N 56°35' E 011°43'1312.3
2014-Aug-27 09:32N 56°24' E 011°31'1211.9
2014-Aug-27 08:33N 56°14' E 011°20'4810.6
2014-Aug-27 04:04N 55°29' E 010°55'1910.1
2014-Aug-27 02:10N 55°10' E 011°00'49 8.6
2014-Aug-26 20:33N 54°27' E 011°42'1211.9
2014-Aug-26 19:32N 54°26' E 012°03'10 9.8
2014-Aug-26 18:33N 54°33' E 012°15'1111.3
2014-Aug-26 17:33N 54°41' E 012°28'1111.1
2014-Aug-26 16:33N 54°47' E 012°45'1412.5
2014-Aug-26 15:26N 54°52' E 013°07'4611.8
2014-Aug-26 11:32N 55°09' E 014°22'1212.0
2014-Aug-26 10:33N 55°17' E 014°38'9 8.9
2014-Aug-26 09:33N 55°19' E 014°53'1211.7
2014-Aug-26 08:33N 55°25' E 015°10'1311.8
2014-Aug-26 07:29N 55°33' E 015°28'34311.4
2014-Aug-25 01:26N 59°35' E 023°02'1112.0
2014-Aug-25 00:33N 59°38' E 023°22'1212.2
2014-Aug-24 23:33N 59°41' E 023°45'1211.9
2014-Aug-24 22:33N 59°45' E 024°08'7211.7
2014-Aug-24 16:26N 60°01' E 026°27'1011.6
2014-Aug-24 15:33N 60°01' E 026°47'  
2014-Aug-20 16:33N 59°59' E 026°41'9813.9
2014-Aug-20 09:32N 59°35' E 023°33'34213.7
2014-Aug-19 08:32N 55°42' E 015°44'1414.4
2014-Aug-19 07:33N 55°35' E 015°22'1514.7
2014-Aug-19 06:33N 55°30' E 014°58'1514.5
2014-Aug-19 05:32N 55°22' E 014°36'1414.4
2014-Aug-19 04:33N 55°11' E 014°21'3514.7
2014-Aug-19 02:11N 55°11' E 013°19'915.0
2014-Aug-19 01:33N 55°12' E 013°03'1514.9
2014-Aug-19 00:33N 55°18' E 012°39'1212.4
2014-Aug-18 23:33N 55°30' E 012°42'10 9.9
2014-Aug-18 22:34N 55°40' E 012°41'1413.9
2014-Aug-18 21:33N 55°54' E 012°39'1313.3
2014-Aug-18 20:34N 56°06' E 012°32'10 9.8
2014-Aug-18 19:33N 56°12' E 012°18'1313.0
2014-Aug-18 18:33N 56°22' E 012°02'1414.5
2014-Aug-18 17:33N 56°36' E 011°56'1514.8
2014-Aug-18 16:33N 56°50' E 011°49'1614.7
2014-Aug-18 15:29N 57°05' E 011°39'1314.3
2014-Aug-18 14:33N 57°18' E 011°31'1514.5
2014-Aug-18 13:33N 57°31' E 011°19'1515.2
2014-Aug-18 12:33N 57°41' E 010°58'1414.5
2014-Aug-18 11:33N 57°48' E 010°34'1615.9
2014-Aug-18 10:33N 57°46' E 010°04'7814.9
2014-Aug-18 05:21N 57°02' E 008°06'1915.4
2014-Aug-18 04:09N 56°45' E 007°52'  

Dump ship's entire track history